ARN weather

Stockholm-Arlanda Airport
Stockholm, Stockholms län, Sweden

Public forecast

Using degrees Celsius for public forecast. Weather courtesy of forecast.io.

METAR (pilot weather report)

Retrieved 2018/08/16 16:20 UTC (15 minutes ago):

ESSA 161620Z 17016KT CAVOK 22/15 Q1014 NOSIG

TAF (pilot weather forecast)

Retrieved 2018/08/16 12:33 UTC (4 hours ago):

TAF ESSA 161130Z 1612/1712 18012KT CAVOK